sensor_id;sensor_type;location;lat;lon;timestamp;pressure;altitude;pressure_sealevel;temperature;humidity
69184;BME280;56291;53.960;27.550;2023-05-11T05:14:01;100063.47;;;3.92;41.07
69184;BME280;56291;53.960;27.550;2023-05-11T05:16:27;100063.69;;;4.05;39.75
69184;BME280;56291;53.960;27.550;2023-05-11T05:18:54;100069.09;;;4.20;41.11
69184;BME280;56291;53.960;27.550;2023-05-11T05:21:21;100067.41;;;4.36;40.86
69184;BME280;56291;53.960;27.550;2023-05-11T05:23:48;100058.09;;;4.48;40.41
69184;BME280;56291;53.960;27.550;2023-05-11T05:26:14;100063.53;;;4.61;40.28
69184;BME280;56291;53.960;27.550;2023-05-11T05:28:40;100059.66;;;4.68;40.68
69184;BME280;56291;53.960;27.550;2023-05-11T05:31:06;100062.34;;;4.84;41.34
69184;BME280;56291;53.960;27.550;2023-05-11T05:33:33;100062.88;;;5.07;41.15
69184;BME280;56291;53.960;27.550;2023-05-11T05:35:59;100056.31;;;5.15;41.51
69184;BME280;56291;53.960;27.550;2023-05-11T05:38:25;100058.69;;;5.36;41.41
69184;BME280;56291;53.960;27.550;2023-05-11T05:40:52;100064.66;;;5.38;40.72
69184;BME280;56291;53.960;27.550;2023-05-11T05:43:20;100066.59;;;5.51;41.47
69184;BME280;56291;53.960;27.550;2023-05-11T05:45:46;100062.38;;;5.64;41.19
69184;BME280;56291;53.960;27.550;2023-05-11T05:48:13;100054.88;;;5.74;42.05
69184;BME280;56291;53.960;27.550;2023-05-11T05:50:39;100069.59;;;5.91;42.13
69184;BME280;56291;53.960;27.550;2023-05-11T05:53:05;100056.50;;;6.07;41.49
69184;BME280;56291;53.960;27.550;2023-05-11T05:55:32;100062.25;;;6.28;40.63
69184;BME280;56291;53.960;27.550;2023-05-11T05:57:59;100061.91;;;6.34;40.81
69184;BME280;56291;53.960;27.550;2023-05-11T06:00:25;100055.94;;;6.46;40.88
69184;BME280;56291;53.960;27.550;2023-05-11T06:02:51;100061.09;;;6.62;40.79
69184;BME280;56291;53.960;27.550;2023-05-11T06:05:18;100048.56;;;6.67;40.20
69184;BME280;56291;53.960;27.550;2023-05-11T06:07:44;100050.16;;;6.84;40.09
69184;BME280;56291;53.960;27.550;2023-05-11T06:10:10;100065.38;;;7.07;40.54
69184;BME280;56291;53.960;27.550;2023-05-11T06:12:36;100055.06;;;7.18;40.72
69184;BME280;56291;53.960;27.550;2023-05-11T06:15:03;100060.84;;;7.37;40.68
69184;BME280;56291;53.960;27.550;2023-05-11T06:17:29;100054.16;;;7.61;39.72
69184;BME280;56291;53.960;27.550;2023-05-11T06:19:55;100055.69;;;7.78;40.00
69184;BME280;56291;53.960;27.550;2023-05-11T06:22:22;100052.50;;;8.00;38.98
69184;BME280;56291;53.960;27.550;2023-05-11T06:24:48;100052.72;;;8.10;39.49
69184;BME280;56291;53.960;27.550;2023-05-11T06:27:14;100052.63;;;8.24;39.05
69184;BME280;56291;53.960;27.550;2023-05-11T06:29:41;100059.78;;;8.35;39.99
69184;BME280;56291;53.960;27.550;2023-05-11T06:32:10;100056.16;;;8.50;39.71
69184;BME280;56291;53.960;27.550;2023-05-11T06:34:40;100051.34;;;8.70;39.74
69184;BME280;56291;53.960;27.550;2023-05-11T06:37:07;100054.03;;;8.94;38.85
69184;BME280;56291;53.960;27.550;2023-05-11T06:39:37;100053.47;;;9.15;38.57
69184;BME280;56291;53.960;27.550;2023-05-11T06:42:03;100052.69;;;9.38;39.24
69184;BME280;56291;53.960;27.550;2023-05-11T06:44:30;100058.41;;;9.81;39.18
69184;BME280;56291;53.960;27.550;2023-05-11T06:46:56;100047.41;;;10.22;38.58
69184;BME280;56291;53.960;27.550;2023-05-11T06:49:23;100047.97;;;10.50;37.58
69184;BME280;56291;53.960;27.550;2023-05-11T06:51:49;100052.44;;;10.84;37.15
69184;BME280;56291;53.960;27.550;2023-05-11T06:54:15;100050.31;;;10.89;37.59
69184;BME280;56291;53.960;27.550;2023-05-11T06:56:41;100056.88;;;10.94;36.68
69184;BME280;56291;53.960;27.550;2023-05-11T06:59:08;100059.00;;;11.12;36.87
69184;BME280;56291;53.960;27.550;2023-05-11T07:01:34;100052.53;;;11.27;36.84
69184;BME280;56291;53.960;27.550;2023-05-11T07:04:00;100059.31;;;11.53;37.54
69184;BME280;56291;53.960;27.550;2023-05-11T07:06:26;100053.25;;;11.73;37.60
69184;BME280;56291;53.960;27.550;2023-05-11T07:08:53;100053.69;;;11.90;37.41
69184;BME280;56291;53.960;27.550;2023-05-11T07:11:19;100057.59;;;12.07;36.88
69184;BME280;56291;53.960;27.550;2023-05-11T07:13:46;100058.00;;;12.23;35.09
69184;BME280;56291;53.960;27.550;2023-05-11T07:16:12;100056.38;;;12.32;33.43
69184;BME280;56291;53.960;27.550;2023-05-11T07:18:39;100054.94;;;12.49;34.97
69184;BME280;56291;53.960;27.550;2023-05-11T07:21:05;100050.09;;;12.75;35.50
69184;BME280;56291;53.960;27.550;2023-05-11T07:23:31;100050.56;;;12.90;35.05
69184;BME280;56291;53.960;27.550;2023-05-11T07:25:58;100059.13;;;13.13;34.22
69184;BME280;56291;53.960;27.550;2023-05-11T07:28:24;100054.44;;;13.27;35.17
69184;BME280;56291;53.960;27.550;2023-05-11T07:30:50;100050.59;;;13.41;33.79
69184;BME280;56291;53.960;27.550;2023-05-11T07:33:17;100052.19;;;13.63;33.53
69184;BME280;56291;53.960;27.550;2023-05-11T07:35:43;100054.69;;;13.84;33.43
69184;BME280;56291;53.960;27.550;2023-05-11T07:38:09;100044.25;;;14.02;29.31
69184;BME280;56291;53.960;27.550;2023-05-11T07:40:36;100047.47;;;14.15;32.12
69184;BME280;56291;53.960;27.550;2023-05-11T07:43:03;100037.22;;;14.40;31.65
69184;BME280;56291;53.960;27.550;2023-05-11T07:45:29;100039.16;;;14.57;31.19
69184;BME280;56291;53.960;27.550;2023-05-11T07:47:57;100034.22;;;14.72;30.86
69184;BME280;56291;53.960;27.550;2023-05-11T07:50:25;100035.28;;;14.89;30.86
69184;BME280;56291;53.960;27.550;2023-05-11T07:52:52;100035.88;;;15.11;28.35
69184;BME280;56291;53.960;27.550;2023-05-11T07:55:18;100030.22;;;15.24;26.33
69184;BME280;56291;53.960;27.550;2023-05-11T07:57:51;100029.50;;;15.32;29.65
69184;BME280;56291;53.960;27.550;2023-05-11T08:00:19;100024.50;;;15.47;27.03
69184;BME280;56291;53.960;27.550;2023-05-11T08:02:46;100027.31;;;15.63;29.98
69184;BME280;56291;53.960;27.550;2023-05-11T08:05:12;100031.97;;;15.79;29.22
69184;BME280;56291;53.960;27.550;2023-05-11T08:07:38;100036.50;;;16.05;29.88
69184;BME280;56291;53.960;27.550;2023-05-11T08:10:05;100029.44;;;16.14;29.41
69184;BME280;56291;53.960;27.550;2023-05-11T08:12:40;100022.00;;;16.43;29.45
69184;BME280;56291;53.960;27.550;2023-05-11T08:15:07;100018.63;;;16.59;28.33
69184;BME280;56291;53.960;27.550;2023-05-11T08:17:36;100015.41;;;16.82;29.33
69184;BME280;56291;53.960;27.550;2023-05-11T08:20:03;100017.97;;;16.92;29.02
69184;BME280;56291;53.960;27.550;2023-05-11T08:22:31;100014.38;;;17.09;26.61
69184;BME280;56291;53.960;27.550;2023-05-11T08:24:57;100016.91;;;17.19;26.97
69184;BME280;56291;53.960;27.550;2023-05-11T08:27:23;100020.59;;;17.35;26.53
69184;BME280;56291;53.960;27.550;2023-05-11T08:29:50;100017.00;;;17.60;27.80
69184;BME280;56291;53.960;27.550;2023-05-11T08:32:17;100019.19;;;17.81;28.09
69184;BME280;56291;53.960;27.550;2023-05-11T08:34:43;100003.38;;;18.05;28.52
69184;BME280;56291;53.960;27.550;2023-05-11T08:37:09;100002.88;;;18.26;27.31
69184;BME280;56291;53.960;27.550;2023-05-11T08:39:36;100005.34;;;18.36;28.15
69184;BME280;56291;53.960;27.550;2023-05-11T08:42:03;100000.25;;;18.65;27.54
69184;BME280;56291;53.960;27.550;2023-05-11T08:44:32;99998.53;;;18.89;27.94
69184;BME280;56291;53.960;27.550;2023-05-11T08:47:03;99996.28;;;19.09;27.99
69184;BME280;56291;53.960;27.550;2023-05-11T08:49:31;99994.00;;;19.29;27.53
69184;BME280;56291;53.960;27.550;2023-05-11T08:51:57;99991.38;;;19.52;28.07
69184;BME280;56291;53.960;27.550;2023-05-11T08:54:24;99990.16;;;19.78;27.61
69184;BME280;56291;53.960;27.550;2023-05-11T08:56:51;99986.84;;;19.99;26.83
69184;BME280;56291;53.960;27.550;2023-05-11T08:59:17;99991.31;;;20.22;27.40
69184;BME280;56291;53.960;27.550;2023-05-11T09:01:45;99997.22;;;20.47;27.11
69184;BME280;56291;53.960;27.550;2023-05-11T09:04:13;99982.41;;;20.75;26.76
69184;BME280;56291;53.960;27.550;2023-05-11T09:06:40;99985.59;;;21.00;27.50
69184;BME280;56291;53.960;27.550;2023-05-11T09:09:06;99986.13;;;21.10;28.64
69184;BME280;56291;53.960;27.550;2023-05-11T09:11:33;99977.72;;;21.35;26.99
69184;BME280;56291;53.960;27.550;2023-05-11T09:14:00;99977.00;;;21.63;26.26
69184;BME280;56291;53.960;27.550;2023-05-11T09:16:26;99974.88;;;21.80;26.38
69184;BME280;56291;53.960;27.550;2023-05-11T09:18:54;99978.22;;;21.82;26.37
69184;BME280;56291;53.960;27.550;2023-05-11T09:21:24;99975.13;;;22.13;26.33
69184;BME280;56291;53.960;27.550;2023-05-11T09:23:51;99978.34;;;22.30;25.91
69184;BME280;56291;53.960;27.550;2023-05-11T09:26:21;99974.63;;;22.53;25.65
69184;BME280;56291;53.960;27.550;2023-05-11T09:28:53;99969.50;;;22.65;25.76
69184;BME280;56291;53.960;27.550;2023-05-11T09:31:42;99960.69;;;22.78;25.70
69184;BME280;56291;53.960;27.550;2023-05-11T09:36:44;99960.75;;;22.91;26.63
69184;BME280;56291;53.960;27.550;2023-05-11T09:39:11;99960.81;;;23.11;26.75
69184;BME280;56291;53.960;27.550;2023-05-11T09:41:38;99955.69;;;23.16;26.03
69184;BME280;56291;53.960;27.550;2023-05-11T09:44:14;99947.84;;;23.15;25.78
69184;BME280;56291;53.960;27.550;2023-05-11T09:46:42;99950.97;;;23.25;25.96
69184;BME280;56291;53.960;27.550;2023-05-11T09:49:09;99947.03;;;23.27;26.64
69184;BME280;56291;53.960;27.550;2023-05-11T09:51:37;99948.69;;;23.22;25.60
69184;BME280;56291;53.960;27.550;2023-05-11T09:54:19;99940.03;;;23.33;27.05
69184;BME280;56291;53.960;27.550;2023-05-11T09:56:48;99944.38;;;23.41;25.61
69184;BME280;56291;53.960;27.550;2023-05-11T09:59:39;99947.44;;;23.31;27.34
69184;BME280;56291;53.960;27.550;2023-05-11T10:02:23;99940.03;;;23.40;26.49
69184;BME280;56291;53.960;27.550;2023-05-11T10:04:51;99941.69;;;23.48;27.67
69184;BME280;56291;53.960;27.550;2023-05-11T10:07:33;99939.63;;;23.63;25.87
69184;BME280;56291;53.960;27.550;2023-05-11T10:10:05;99936.56;;;23.59;23.88
69184;BME280;56291;53.960;27.550;2023-05-11T10:12:32;99934.69;;;23.40;19.39
69184;BME280;56291;53.960;27.550;2023-05-11T10:15:03;99934.28;;;23.76;24.75
69184;BME280;56291;53.960;27.550;2023-05-11T10:17:31;99931.38;;;23.85;23.60
69184;BME280;56291;53.960;27.550;2023-05-11T10:19:59;99919.59;;;23.99;27.02
69184;BME280;56291;53.960;27.550;2023-05-11T10:22:27;99921.44;;;24.19;25.25
69184;BME280;56291;53.960;27.550;2023-05-11T10:24:56;99929.22;;;24.40;24.15
69184;BME280;56291;53.960;27.550;2023-05-11T10:27:23;99916.78;;;24.46;23.83
69184;BME280;56291;53.960;27.550;2023-05-11T10:29:50;99915.53;;;24.62;23.69
69184;BME280;56291;53.960;27.550;2023-05-11T10:32:18;99912.19;;;24.67;23.45
69184;BME280;56291;53.960;27.550;2023-05-11T10:34:46;99909.63;;;24.78;22.95
69184;BME280;56291;53.960;27.550;2023-05-11T10:37:14;99909.81;;;24.84;22.08
69184;BME280;56291;53.960;27.550;2023-05-11T10:39:43;99911.16;;;25.00;23.69
69184;BME280;56291;53.960;27.550;2023-05-11T10:53:14;99906.59;;;25.39;23.98
69184;BME280;56291;53.960;27.550;2023-05-11T11:01:36;99907.22;;;25.41;24.73
69184;BME280;56291;53.960;27.550;2023-05-11T11:04:06;99904.13;;;25.37;24.78
69184;BME280;56291;53.960;27.550;2023-05-11T11:06:35;99902.56;;;25.55;23.88
69184;BME280;56291;53.960;27.550;2023-05-11T11:09:06;99898.59;;;25.57;21.79
69184;BME280;56291;53.960;27.550;2023-05-11T11:11:39;99892.03;;;25.72;21.85
69184;BME280;56291;53.960;27.550;2023-05-11T11:14:08;99889.53;;;25.95;21.65
69184;BME280;56291;53.960;27.550;2023-05-11T11:16:38;99892.19;;;26.02;16.96
69184;BME280;56291;53.960;27.550;2023-05-11T11:22:00;99888.72;;;26.50;21.32
69184;BME280;56291;53.960;27.550;2023-05-11T11:24:42;99887.13;;;26.61;21.33
69184;BME280;56291;53.960;27.550;2023-05-11T11:27:09;99877.69;;;27.01;20.32
69184;BME280;56291;53.960;27.550;2023-05-11T11:29:38;99878.22;;;27.22;19.55
69184;BME280;56291;53.960;27.550;2023-05-11T11:32:23;99876.75;;;27.61;21.91
69184;BME280;56291;53.960;27.550;2023-05-11T11:34:51;99880.03;;;27.75;21.03
69184;BME280;56291;53.960;27.550;2023-05-11T11:37:18;99887.44;;;27.80;21.02
69184;BME280;56291;53.960;27.550;2023-05-11T11:39:49;99883.78;;;27.74;19.55
69184;BME280;56291;53.960;27.550;2023-05-11T11:42:16;99881.31;;;27.96;21.49
69184;BME280;56291;53.960;27.550;2023-05-11T11:44:44;99884.16;;;28.13;21.43
69184;BME280;56291;53.960;27.550;2023-05-11T11:47:17;99881.31;;;28.08;19.91
69184;BME280;56291;53.960;27.550;2023-05-11T11:49:52;99883.41;;;28.18;21.11
69184;BME280;56291;53.960;27.550;2023-05-11T11:54:55;99886.00;;;28.25;20.89
69184;BME280;56291;53.960;27.550;2023-05-11T12:00:06;99877.09;;;28.12;19.80
69184;BME280;56291;53.960;27.550;2023-05-11T12:02:43;99872.97;;;28.22;20.42
69184;BME280;56291;53.960;27.550;2023-05-11T12:07:44;99878.19;;;28.40;20.42
69184;BME280;56291;53.960;27.550;2023-05-11T12:10:15;99874.00;;;28.61;20.55
69184;BME280;56291;53.960;27.550;2023-05-11T12:12:49;99875.78;;;28.55;20.13
69184;BME280;56291;53.960;27.550;2023-05-11T12:15:26;99880.25;;;28.62;20.03
69184;BME280;56291;53.960;27.550;2023-05-11T12:17:53;99873.66;;;28.69;20.26
69184;BME280;56291;53.960;27.550;2023-05-11T12:20:20;99876.41;;;28.86;19.48
69184;BME280;56291;53.960;27.550;2023-05-11T12:22:47;99873.88;;;28.97;16.96
69184;BME280;56291;53.960;27.550;2023-05-11T12:25:17;99877.00;;;29.05;19.71
69184;BME280;56291;53.960;27.550;2023-05-11T12:30:23;99869.41;;;29.36;20.29
69184;BME280;56291;53.960;27.550;2023-05-11T12:32:50;99864.91;;;28.96;19.18
69184;BME280;56291;53.960;27.550;2023-05-11T12:35:28;99863.66;;;29.50;19.87
69184;BME280;56291;53.960;27.550;2023-05-11T12:37:55;99858.63;;;29.76;19.41
69184;BME280;56291;53.960;27.550;2023-05-11T12:40:22;99857.72;;;29.87;19.05
69184;BME280;56291;53.960;27.550;2023-05-11T12:42:53;99854.31;;;29.97;19.48
69184;BME280;56291;53.960;27.550;2023-05-11T12:45:21;99852.34;;;30.14;18.66
69184;BME280;56291;53.960;27.550;2023-05-11T12:47:49;99846.84;;;30.31;18.11
69184;BME280;56291;53.960;27.550;2023-05-11T12:50:16;99848.84;;;30.36;19.30
69184;BME280;56291;53.960;27.550;2023-05-11T12:52:43;99841.56;;;30.41;19.01
69184;BME280;56291;53.960;27.550;2023-05-11T12:55:09;99846.16;;;30.63;19.60
69184;BME280;56291;53.960;27.550;2023-05-11T12:57:41;99836.41;;;30.67;19.22
69184;BME280;56291;53.960;27.550;2023-05-11T13:00:14;99834.91;;;30.82;19.49
69184;BME280;56291;53.960;27.550;2023-05-11T13:02:53;99836.44;;;31.00;18.88
69184;BME280;56291;53.960;27.550;2023-05-11T13:05:24;99831.84;;;31.00;19.03
69184;BME280;56291;53.960;27.550;2023-05-11T13:08:05;99827.06;;;31.13;19.06
69184;BME280;56291;53.960;27.550;2023-05-11T13:10:31;99826.38;;;31.27;19.28
69184;BME280;56291;53.960;27.550;2023-05-11T13:12:58;99826.16;;;31.34;18.95
69184;BME280;56291;53.960;27.550;2023-05-11T13:15:25;99824.19;;;31.62;19.24
69184;BME280;56291;53.960;27.550;2023-05-11T13:18:01;99810.63;;;31.72;18.58
69184;BME280;56291;53.960;27.550;2023-05-11T13:20:31;99817.44;;;31.75;18.56
69184;BME280;56291;53.960;27.550;2023-05-11T13:23:16;99805.50;;;31.81;18.36
69184;BME280;56291;53.960;27.550;2023-05-11T13:28:18;99818.31;;;31.91;18.50
69184;BME280;56291;53.960;27.550;2023-05-11T13:30:45;99809.41;;;32.06;19.18
69184;BME280;56291;53.960;27.550;2023-05-11T13:33:12;99816.00;;;32.15;18.23
69184;BME280;56291;53.960;27.550;2023-05-11T13:35:39;99811.38;;;32.16;18.14
69184;BME280;56291;53.960;27.550;2023-05-11T13:38:06;99810.81;;;32.14;18.22
69184;BME280;56291;53.960;27.550;2023-05-11T13:40:33;99814.13;;;32.21;18.09
69184;BME280;56291;53.960;27.550;2023-05-11T13:43:00;99815.50;;;32.28;18.02
69184;BME280;56291;53.960;27.550;2023-05-11T13:45:26;99809.94;;;32.08;17.14
69184;BME280;56291;53.960;27.550;2023-05-11T13:47:53;99807.59;;;32.27;17.87
69184;BME280;56291;53.960;27.550;2023-05-11T13:50:39;99806.78;;;32.32;17.58
69184;BME280;56291;53.960;27.550;2023-05-11T13:53:05;99800.69;;;32.04;17.41
69184;BME280;56291;53.960;27.550;2023-05-11T13:55:31;99799.06;;;32.03;17.36
69184;BME280;56291;53.960;27.550;2023-05-11T13:57:57;99793.28;;;31.89;17.05
69184;BME280;56291;53.960;27.550;2023-05-11T14:00:24;99787.56;;;31.85;17.49
69184;BME280;56291;53.960;27.550;2023-05-11T14:02:51;99802.16;;;31.69;17.22
69184;BME280;56291;53.960;27.550;2023-05-11T14:05:17;99802.50;;;31.77;17.97
69184;BME280;56291;53.960;27.550;2023-05-11T14:07:43;99794.91;;;31.90;18.03
69184;BME280;56291;53.960;27.550;2023-05-11T14:10:13;99791.41;;;31.94;18.02
69184;BME280;56291;53.960;27.550;2023-05-11T14:12:39;99794.66;;;31.91;17.74
